sensor_id;sensor_type;location;lat;lon;timestamp;temperature;humidity
66582;SHT31;53438;48.898;2.308;2023-03-19T00:01:45;13.55;76.51
66582;SHT31;53438;48.898;2.308;2023-03-19T00:04:11;13.49;76.64
66582;SHT31;53438;48.898;2.308;2023-03-19T00:06:36;13.39;76.94
66582;SHT31;53438;48.898;2.308;2023-03-19T00:09:02;13.39;76.95
66582;SHT31;53438;48.898;2.308;2023-03-19T00:11:28;13.42;76.99
66582;SHT31;53438;48.898;2.308;2023-03-19T00:13:53;13.39;77.04
66582;SHT31;53438;48.898;2.308;2023-03-19T00:16:18;13.36;77.16
66582;SHT31;53438;48.898;2.308;2023-03-19T00:18:44;13.34;77.02
66582;SHT31;53438;48.898;2.308;2023-03-19T00:21:10;13.36;76.93
66582;SHT31;53438;48.898;2.308;2023-03-19T00:23:35;13.38;76.93
66582;SHT31;53438;48.898;2.308;2023-03-19T00:26:01;13.38;76.77
66582;SHT31;53438;48.898;2.308;2023-03-19T00:28:29;13.38;76.67
66582;SHT31;53438;48.898;2.308;2023-03-19T00:30:55;13.35;76.90
66582;SHT31;53438;48.898;2.308;2023-03-19T00:33:20;13.31;77.03
66582;SHT31;53438;48.898;2.308;2023-03-19T00:35:46;13.28;77.13
66582;SHT31;53438;48.898;2.308;2023-03-19T00:38:11;13.28;77.25
66582;SHT31;53438;48.898;2.308;2023-03-19T00:40:37;13.25;77.14
66582;SHT31;53438;48.898;2.308;2023-03-19T00:43:03;13.25;77.05
66582;SHT31;53438;48.898;2.308;2023-03-19T00:45:28;13.22;77.26
66582;SHT31;53438;48.898;2.308;2023-03-19T00:47:55;13.24;77.13
66582;SHT31;53438;48.898;2.308;2023-03-19T00:50:21;13.18;77.23
66582;SHT31;53438;48.898;2.308;2023-03-19T00:52:47;13.10;77.43
66582;SHT31;53438;48.898;2.308;2023-03-19T00:55:12;13.11;77.50
66582;SHT31;53438;48.898;2.308;2023-03-19T00:57:37;13.14;77.54
66582;SHT31;53438;48.898;2.308;2023-03-19T04:01:35;12.52;79.56
66582;SHT31;53438;48.898;2.308;2023-03-19T04:04:00;12.52;79.63
66582;SHT31;53438;48.898;2.308;2023-03-19T04:06:27;12.54;79.39
66582;SHT31;53438;48.898;2.308;2023-03-19T04:08:52;12.54;79.46
66582;SHT31;53438;48.898;2.308;2023-03-19T04:11:19;12.50;79.32
66582;SHT31;53438;48.898;2.308;2023-03-19T04:13:44;12.54;79.44
66582;SHT31;53438;48.898;2.308;2023-03-19T04:16:10;12.53;79.67
66582;SHT31;53438;48.898;2.308;2023-03-19T04:18:36;12.49;80.04
66582;SHT31;53438;48.898;2.308;2023-03-19T04:21:05;12.47;80.22
66582;SHT31;53438;48.898;2.308;2023-03-19T04:23:31;12.47;80.49
66582;SHT31;53438;48.898;2.308;2023-03-19T04:26:00;12.36;81.03
66582;SHT31;53438;48.898;2.308;2023-03-19T04:28:28;12.28;81.53
66582;SHT31;53438;48.898;2.308;2023-03-19T04:31:01;12.29;81.74
66582;SHT31;53438;48.898;2.308;2023-03-19T04:33:27;12.25;82.03
66582;SHT31;53438;48.898;2.308;2023-03-19T04:35:54;12.26;82.52
66582;SHT31;53438;48.898;2.308;2023-03-19T04:38:20;12.23;82.77
66582;SHT31;53438;48.898;2.308;2023-03-19T04:40:47;12.22;83.11
66582;SHT31;53438;48.898;2.308;2023-03-19T04:43:13;12.16;83.58
66582;SHT31;53438;48.898;2.308;2023-03-19T04:45:38;12.21;83.46
66582;SHT31;53438;48.898;2.308;2023-03-19T04:48:03;12.12;83.66
66582;SHT31;53438;48.898;2.308;2023-03-19T04:50:29;12.06;83.89
66582;SHT31;53438;48.898;2.308;2023-03-19T04:52:55;12.01;84.12
66582;SHT31;53438;48.898;2.308;2023-03-19T04:55:20;12.04;84.03
66582;SHT31;53438;48.898;2.308;2023-03-19T04:57:45;12.05;83.83
66582;SHT31;53438;48.898;2.308;2023-03-19T05:00:11;12.08;83.73
66582;SHT31;53438;48.898;2.308;2023-03-19T05:02:39;12.11;83.72
66582;SHT31;53438;48.898;2.308;2023-03-19T05:05:05;12.12;83.39
66582;SHT31;53438;48.898;2.308;2023-03-19T05:07:31;12.06;83.07
66582;SHT31;53438;48.898;2.308;2023-03-19T05:09:56;11.99;83.24
66582;SHT31;53438;48.898;2.308;2023-03-19T05:12:21;12.02;83.26
66582;SHT31;53438;48.898;2.308;2023-03-19T05:14:47;12.05;83.08
66582;SHT31;53438;48.898;2.308;2023-03-19T05:17:12;12.09;82.93
66582;SHT31;53438;48.898;2.308;2023-03-19T05:19:39;12.06;82.96
66582;SHT31;53438;48.898;2.308;2023-03-19T05:22:05;12.15;82.78
66582;SHT31;53438;48.898;2.308;2023-03-19T05:24:30;12.13;82.82
66582;SHT31;53438;48.898;2.308;2023-03-19T05:26:55;12.06;82.92
66582;SHT31;53438;48.898;2.308;2023-03-19T05:29:21;12.09;82.85
66582;SHT31;53438;48.898;2.308;2023-03-19T05:31:46;12.06;83.00
66582;SHT31;53438;48.898;2.308;2023-03-19T05:34:12;12.06;83.01
66582;SHT31;53438;48.898;2.308;2023-03-19T05:36:37;12.04;83.08
66582;SHT31;53438;48.898;2.308;2023-03-19T05:39:03;12.05;83.23
66582;SHT31;53438;48.898;2.308;2023-03-19T05:41:30;12.01;83.26
66582;SHT31;53438;48.898;2.308;2023-03-19T05:43:56;12.02;83.29
66582;SHT31;53438;48.898;2.308;2023-03-19T05:46:21;11.99;83.52
66582;SHT31;53438;48.898;2.308;2023-03-19T05:48:47;11.99;83.50
66582;SHT31;53438;48.898;2.308;2023-03-19T05:51:12;12.02;83.19
66582;SHT31;53438;48.898;2.308;2023-03-19T05:53:37;12.04;83.19
66582;SHT31;53438;48.898;2.308;2023-03-19T05:56:03;12.06;83.24
66582;SHT31;53438;48.898;2.308;2023-03-19T05:58:29;12.08;83.22
66582;SHT31;53438;48.898;2.308;2023-03-19T06:00:55;12.02;82.96
66582;SHT31;53438;48.898;2.308;2023-03-19T06:03:21;12.05;83.12
66582;SHT31;53438;48.898;2.308;2023-03-19T06:05:50;12.05;82.89
66582;SHT31;53438;48.898;2.308;2023-03-19T06:08:16;12.05;82.79
66582;SHT31;53438;48.898;2.308;2023-03-19T06:10:41;12.06;82.91
66582;SHT31;53438;48.898;2.308;2023-03-19T06:13:06;12.06;82.97
66582;SHT31;53438;48.898;2.308;2023-03-19T06:15:32;12.06;83.12
66582;SHT31;53438;48.898;2.308;2023-03-19T06:17:57;12.05;83.07
66582;SHT31;53438;48.898;2.308;2023-03-19T06:20:23;12.11;82.86
66582;SHT31;53438;48.898;2.308;2023-03-19T06:22:48;12.13;82.95
66582;SHT31;53438;48.898;2.308;2023-03-19T06:25:13;11.95;82.87
66582;SHT31;53438;48.898;2.308;2023-03-19T06:27:39;12.02;83.09
66582;SHT31;53438;48.898;2.308;2023-03-19T06:30:05;12.04;83.08
66582;SHT31;53438;48.898;2.308;2023-03-19T06:32:31;12.04;83.11
66582;SHT31;53438;48.898;2.308;2023-03-19T06:34:56;12.06;83.04
66582;SHT31;53438;48.898;2.308;2023-03-19T06:37:22;12.08;83.03
66582;SHT31;53438;48.898;2.308;2023-03-19T06:39:48;12.04;83.27
66582;SHT31;53438;48.898;2.308;2023-03-19T06:42:13;12.08;83.12
66582;SHT31;53438;48.898;2.308;2023-03-19T06:44:39;12.08;83.16
66582;SHT31;53438;48.898;2.308;2023-03-19T06:47:04;12.04;83.04
66582;SHT31;53438;48.898;2.308;2023-03-19T06:49:30;12.04;83.28
66582;SHT31;53438;48.898;2.308;2023-03-19T06:51:55;12.06;83.11
66582;SHT31;53438;48.898;2.308;2023-03-19T06:54:20;12.11;82.58
66582;SHT31;53438;48.898;2.308;2023-03-19T06:56:46;12.02;81.57
66582;SHT31;53438;48.898;2.308;2023-03-19T06:59:13;12.09;81.88
66582;SHT31;53438;48.898;2.308;2023-03-19T07:01:40;12.06;81.26
66582;SHT31;53438;48.898;2.308;2023-03-19T07:04:07;12.08;80.72
66582;SHT31;53438;48.898;2.308;2023-03-19T07:06:32;12.13;80.79
66582;SHT31;53438;48.898;2.308;2023-03-19T07:08:59;12.15;81.00
66582;SHT31;53438;48.898;2.308;2023-03-19T07:11:24;12.22;81.16
66582;SHT31;53438;48.898;2.308;2023-03-19T07:13:50;12.22;81.17
66582;SHT31;53438;48.898;2.308;2023-03-19T07:16:15;12.29;81.26
66582;SHT31;53438;48.898;2.308;2023-03-19T07:18:40;12.29;80.92
66582;SHT31;53438;48.898;2.308;2023-03-19T07:21:06;12.22;79.69
66582;SHT31;53438;48.898;2.308;2023-03-19T07:23:31;12.18;79.36
66582;SHT31;53438;48.898;2.308;2023-03-19T07:25:57;12.25;79.06
66582;SHT31;53438;48.898;2.308;2023-03-19T07:28:22;12.04;78.63
66582;SHT31;53438;48.898;2.308;2023-03-19T07:30:50;12.06;79.17
66582;SHT31;53438;48.898;2.308;2023-03-19T07:33:16;12.21;79.28
66582;SHT31;53438;48.898;2.308;2023-03-19T07:35:41;12.30;78.90
66582;SHT31;53438;48.898;2.308;2023-03-19T07:38:07;12.30;79.02
66582;SHT31;53438;48.898;2.308;2023-03-19T07:40:32;12.26;79.36
66582;SHT31;53438;48.898;2.308;2023-03-19T07:42:57;12.18;79.42
66582;SHT31;53438;48.898;2.308;2023-03-19T07:45:23;12.22;79.08
66582;SHT31;53438;48.898;2.308;2023-03-19T07:47:49;12.25;79.18
66582;SHT31;53438;48.898;2.308;2023-03-19T07:50:16;12.28;78.88
66582;SHT31;53438;48.898;2.308;2023-03-19T07:52:47;12.32;78.57
66582;SHT31;53438;48.898;2.308;2023-03-19T07:55:13;12.36;78.21
66582;SHT31;53438;48.898;2.308;2023-03-19T07:57:39;12.25;78.68
66582;SHT31;53438;48.898;2.308;2023-03-19T08:00:05;12.40;78.73
66582;SHT31;53438;48.898;2.308;2023-03-19T08:02:32;12.47;78.25
66582;SHT31;53438;48.898;2.308;2023-03-19T08:04:58;12.54;77.92
66582;SHT31;53438;48.898;2.308;2023-03-19T08:07:26;12.68;77.39
66582;SHT31;53438;48.898;2.308;2023-03-19T08:09:51;12.90;76.71
66582;SHT31;53438;48.898;2.308;2023-03-19T08:12:17;12.80;76.49
66582;SHT31;53438;48.898;2.308;2023-03-19T08:14:42;12.98;76.58
66582;SHT31;53438;48.898;2.308;2023-03-19T08:17:08;13.11;75.48
66582;SHT31;53438;48.898;2.308;2023-03-19T08:19:33;13.24;75.10
66582;SHT31;53438;48.898;2.308;2023-03-19T08:21:58;12.57;75.97
66582;SHT31;53438;48.898;2.308;2023-03-19T08:24:24;12.40;77.46
66582;SHT31;53438;48.898;2.308;2023-03-19T08:26:49;12.47;77.91
66582;SHT31;53438;48.898;2.308;2023-03-19T08:29:15;12.60;77.36
66582;SHT31;53438;48.898;2.308;2023-03-19T08:31:40;12.56;77.48
66582;SHT31;53438;48.898;2.308;2023-03-19T08:34:07;12.13;77.96
66582;SHT31;53438;48.898;2.308;2023-03-19T08:36:34;12.26;78.25
66582;SHT31;53438;48.898;2.308;2023-03-19T08:39:00;12.42;77.83
66582;SHT31;53438;48.898;2.308;2023-03-19T08:41:26;12.44;78.12
66582;SHT31;53438;48.898;2.308;2023-03-19T08:43:51;12.53;77.51
66582;SHT31;53438;48.898;2.308;2023-03-19T08:46:18;12.43;77.32
66582;SHT31;53438;48.898;2.308;2023-03-19T08:48:43;12.04;78.56
66582;SHT31;53438;48.898;2.308;2023-03-19T08:51:09;11.94;78.77
66582;SHT31;53438;48.898;2.308;2023-03-19T08:53:35;11.64;79.09
66582;SHT31;53438;48.898;2.308;2023-03-19T08:56:02;11.43;79.21
66582;SHT31;53438;48.898;2.308;2023-03-19T08:58:28;11.43;79.58
66582;SHT31;53438;48.898;2.308;2023-03-19T09:01:03;11.55;79.76
66582;SHT31;53438;48.898;2.308;2023-03-19T09:03:29;11.60;79.52
66582;SHT31;53438;48.898;2.308;2023-03-19T09:05:58;11.51;79.14
66582;SHT31;53438;48.898;2.308;2023-03-19T09:08:24;11.78;78.95
66582;SHT31;53438;48.898;2.308;2023-03-19T09:10:49;11.44;78.86
66582;SHT31;53438;48.898;2.308;2023-03-19T09:13:15;11.60;79.13
66582;SHT31;53438;48.898;2.308;2023-03-19T09:15:40;11.67;79.02
66582;SHT31;53438;48.898;2.308;2023-03-19T09:18:05;11.55;79.07
66582;SHT31;53438;48.898;2.308;2023-03-19T09:20:31;11.63;79.07
66582;SHT31;53438;48.898;2.308;2023-03-19T09:22:56;11.65;78.83
66582;SHT31;53438;48.898;2.308;2023-03-19T09:25:21;11.81;78.47
66582;SHT31;53438;48.898;2.308;2023-03-19T09:27:47;11.65;78.96
66582;SHT31;53438;48.898;2.308;2023-03-19T09:30:13;11.68;78.79
66582;SHT31;53438;48.898;2.308;2023-03-19T09:32:38;11.81;78.87
66582;SHT31;53438;48.898;2.308;2023-03-19T09:35:04;11.86;78.83
66582;SHT31;53438;48.898;2.308;2023-03-19T09:37:30;11.91;78.97
66582;SHT31;53438;48.898;2.308;2023-03-19T09:39:55;11.96;78.75
66582;SHT31;53438;48.898;2.308;2023-03-19T09:44:51;12.09;78.78
66582;SHT31;53438;48.898;2.308;2023-03-19T09:47:28;12.02;78.20
66582;SHT31;53438;48.898;2.308;2023-03-19T09:49:57;12.06;78.01
66582;SHT31;53438;48.898;2.308;2023-03-19T09:54:55;11.94;78.85
66582;SHT31;53438;48.898;2.308;2023-03-19T09:57:22;11.98;79.47
66582;SHT31;53438;48.898;2.308;2023-03-19T09:59:49;12.08;79.43
66582;SHT31;53438;48.898;2.308;2023-03-19T10:05:14;11.63;82.33
66582;SHT31;53438;48.898;2.308;2023-03-19T10:08:06;11.81;83.76
66582;SHT31;53438;48.898;2.308;2023-03-19T10:16:05;11.51;84.90
66582;SHT31;53438;48.898;2.308;2023-03-19T10:18:35;11.53;86.52
66582;SHT31;53438;48.898;2.308;2023-03-19T10:21:11;11.47;86.75
66582;SHT31;53438;48.898;2.308;2023-03-19T10:26:12;11.50;84.94
66582;SHT31;53438;48.898;2.308;2023-03-19T10:28:40;11.24;84.42
66582;SHT31;53438;48.898;2.308;2023-03-19T10:36:19;11.48;84.45
66582;SHT31;53438;48.898;2.308;2023-03-19T10:38:46;11.54;85.17
66582;SHT31;53438;48.898;2.308;2023-03-19T10:44:01;11.64;83.90
66582;SHT31;53438;48.898;2.308;2023-03-19T10:46:36;11.67;83.00
66582;SHT31;53438;48.898;2.308;2023-03-19T10:49:01;11.74;83.23
66582;SHT31;53438;48.898;2.308;2023-03-19T10:51:27;11.73;81.88
66582;SHT31;53438;48.898;2.308;2023-03-19T10:53:53;11.77;82.77
66582;SHT31;53438;48.898;2.308;2023-03-19T10:56:24;11.43;82.46
66582;SHT31;53438;48.898;2.308;2023-03-19T11:02:01;10.96;76.48
66582;SHT31;53438;48.898;2.308;2023-03-19T11:04:27;11.02;75.58
66582;SHT31;53438;48.898;2.308;2023-03-19T11:07:09;10.85;76.25
66582;SHT31;53438;48.898;2.308;2023-03-19T11:09:38;11.02;77.11
66582;SHT31;53438;48.898;2.308;2023-03-19T11:12:23;11.05;77.74
66582;SHT31;53438;48.898;2.308;2023-03-19T11:14:52;11.02;77.70
66582;SHT31;53438;48.898;2.308;2023-03-19T11:17:44;10.93;77.54
66582;SHT31;53438;48.898;2.308;2023-03-19T11:20:35;10.76;78.41
66582;SHT31;53438;48.898;2.308;2023-03-19T11:23:10;10.83;79.44
66582;SHT31;53438;48.898;2.308;2023-03-19T11:25:39;10.95;78.73
66582;SHT31;53438;48.898;2.308;2023-03-19T11:28:17;10.91;79.15
66582;SHT31;53438;48.898;2.308;2023-03-19T11:30:54;11.07;78.96
66582;SHT31;53438;48.898;2.308;2023-03-19T11:37:03;11.41;78.33
66582;SHT31;53438;48.898;2.308;2023-03-19T11:50:25;11.77;72.79
66582;SHT31;53438;48.898;2.308;2023-03-19T11:55:42;11.74;71.32
66582;SHT31;53438;48.898;2.308;2023-03-19T12:07:05;12.06;69.69
66582;SHT31;53438;48.898;2.308;2023-03-19T12:12:40;12.02;65.66
66582;SHT31;53438;48.898;2.308;2023-03-19T12:32:11;12.18;63.49
66582;SHT31;53438;48.898;2.308;2023-03-19T12:37:37;12.52;63.92
66582;SHT31;53438;48.898;2.308;2023-03-19T12:42:38;12.47;61.63
66582;SHT31;53438;48.898;2.308;2023-03-19T12:47:44;12.28;61.28
66582;SHT31;53438;48.898;2.308;2023-03-19T12:50:13;12.26;61.73
66582;SHT31;53438;48.898;2.308;2023-03-19T12:52:48;12.12;61.71
66582;SHT31;53438;48.898;2.308;2023-03-19T12:58:03;12.32;61.52
66582;SHT31;53438;48.898;2.308;2023-03-19T13:03:32;12.34;61.91
66582;SHT31;53438;48.898;2.308;2023-03-19T13:06:07;12.22;61.16
66582;SHT31;53438;48.898;2.308;2023-03-19T13:08:44;12.15;59.59
66582;SHT31;53438;48.898;2.308;2023-03-19T13:11:23;12.15;58.12
66582;SHT31;53438;48.898;2.308;2023-03-19T13:17:33;12.11;60.93
66582;SHT31;53438;48.898;2.308;2023-03-19T13:20:06;12.13;62.08
66582;SHT31;53438;48.898;2.308;2023-03-19T13:22:38;12.16;61.34
66582;SHT31;53438;48.898;2.308;2023-03-19T13:25:21;12.22;60.94
66582;SHT31;53438;48.898;2.308;2023-03-19T13:27:52;12.25;60.75
66582;SHT31;53438;48.898;2.308;2023-03-19T13:30:19;12.22;60.10
66582;SHT31;53438;48.898;2.308;2023-03-19T13:33:00;12.12;59.96
66582;SHT31;53438;48.898;2.308;2023-03-19T13:35:34;12.13;60.39
66582;SHT31;53438;48.898;2.308;2023-03-19T13:40:52;12.15;58.20
66582;SHT31;53438;48.898;2.308;2023-03-19T13:43:39;12.19;58.64
66582;SHT31;53438;48.898;2.308;2023-03-19T13:54:04;11.96;58.70
66582;SHT31;53438;48.898;2.308;2023-03-19T13:59:39;11.98;62.53
66582;SHT31;53438;48.898;2.308;2023-03-19T14:04:57;11.98;62.02
66582;SHT31;53438;48.898;2.308;2023-03-19T14:07:35;11.98;61.52
66582;SHT31;53438;48.898;2.308;2023-03-19T14:10:05;11.96;61.31
66582;SHT31;53438;48.898;2.308;2023-03-19T14:12:40;12.09;61.11
66582;SHT31;53438;48.898;2.308;2023-03-19T14:17:41;12.04;59.99
66582;SHT31;53438;48.898;2.308;2023-03-19T14:22:37;11.98;60.21
66582;SHT31;53438;48.898;2.308;2023-03-19T14:25:18;11.99;59.63
66582;SHT31;53438;48.898;2.308;2023-03-19T14:27:49;12.16;59.73
66582;SHT31;53438;48.898;2.308;2023-03-19T14:30:25;12.05;59.05
66582;SHT31;53438;48.898;2.308;2023-03-19T14:32:54;12.15;59.58
66582;SHT31;53438;48.898;2.308;2023-03-19T14:35:23;12.12;59.44
66582;SHT31;53438;48.898;2.308;2023-03-19T14:37:51;12.16;59.59
66582;SHT31;53438;48.898;2.308;2023-03-19T14:40:22;12.11;58.65
66582;SHT31;53438;48.898;2.308;2023-03-19T14:51:53;12.02;58.06
66582;SHT31;53438;48.898;2.308;2023-03-19T14:54:24;12.16;58.14
66582;SHT31;53438;48.898;2.308;2023-03-19T14:56:55;12.26;58.34
66582;SHT31;53438;48.898;2.308;2023-03-19T14:59:20;12.23;57.84
66582;SHT31;53438;48.898;2.308;2023-03-19T15:01:51;12.29;57.94
66582;SHT31;53438;48.898;2.308;2023-03-19T15:04:19;12.39;57.91
66582;SHT31;53438;48.898;2.308;2023-03-19T15:06:51;12.43;57.59
66582;SHT31;53438;48.898;2.308;2023-03-19T15:09:24;12.39;57.74
66582;SHT31;53438;48.898;2.308;2023-03-19T15:17:27;12.54;57.79
66582;SHT31;53438;48.898;2.308;2023-03-19T15:19:55;12.50;57.66
66582;SHT31;53438;48.898;2.308;2023-03-19T15:22:30;12.50;57.79
66582;SHT31;53438;48.898;2.308;2023-03-19T15:25:06;12.63;57.53
66582;SHT31;53438;48.898;2.308;2023-03-19T15:27:33;12.59;56.83
66582;SHT31;53438;48.898;2.308;2023-03-19T15:29:59;12.84;56.81
66582;SHT31;53438;48.898;2.308;2023-03-19T15:32:39;12.94;57.32
66582;SHT31;53438;48.898;2.308;2023-03-19T15:35:07;12.88;57.13
66582;SHT31;53438;48.898;2.308;2023-03-19T15:37:38;12.88;57.39
66582;SHT31;53438;48.898;2.308;2023-03-19T15:40:10;12.90;57.40
66582;SHT31;53438;48.898;2.308;2023-03-19T15:42:37;12.91;57.14
66582;SHT31;53438;48.898;2.308;2023-03-19T15:45:05;12.90;57.35
66582;SHT31;53438;48.898;2.308;2023-03-19T15:47:34;12.93;56.61
66582;SHT31;53438;48.898;2.308;2023-03-19T15:50:05;12.95;51.29
66582;SHT31;53438;48.898;2.308;2023-03-19T15:52:35;13.03;48.44
66582;SHT31;53438;48.898;2.308;2023-03-19T15:55:04;12.93;46.13
66582;SHT31;53438;48.898;2.308;2023-03-19T15:57:31;12.88;46.94
66582;SHT31;53438;48.898;2.308;2023-03-19T15:59:58;12.85;47.80
66582;SHT31;53438;48.898;2.308;2023-03-19T16:02:33;12.73;48.78
66582;SHT31;53438;48.898;2.308;2023-03-19T16:05:00;12.76;49.15
66582;SHT31;53438;48.898;2.308;2023-03-19T16:07:34;12.68;49.50
66582;SHT31;53438;48.898;2.308;2023-03-19T16:10:42;12.61;49.52
66582;SHT31;53438;48.898;2.308;2023-03-19T16:13:29;12.65;49.71
66582;SHT31;53438;48.898;2.308;2023-03-19T16:16:00;12.57;50.03
66582;SHT31;53438;48.898;2.308;2023-03-19T16:18:27;12.47;50.14
66582;SHT31;53438;48.898;2.308;2023-03-19T16:21:02;12.54;49.22
66582;SHT31;53438;48.898;2.308;2023-03-19T16:23:53;12.44;47.64
66582;SHT31;53438;48.898;2.308;2023-03-19T16:26:28;12.49;47.36
66582;SHT31;53438;48.898;2.308;2023-03-19T16:31:26;12.44;48.66
66582;SHT31;53438;48.898;2.308;2023-03-19T16:34:01;12.42;49.22
66582;SHT31;53438;48.898;2.308;2023-03-19T16:36:29;12.39;49.83
66582;SHT31;53438;48.898;2.308;2023-03-19T16:39:31;12.44;50.54
66582;SHT31;53438;48.898;2.308;2023-03-19T16:44:39;12.16;51.68
66582;SHT31;53438;48.898;2.308;2023-03-19T16:47:12;12.11;51.62
66582;SHT31;53438;48.898;2.308;2023-03-19T16:49:38;12.16;52.05
66582;SHT31;53438;48.898;2.308;2023-03-19T16:52:03;12.13;52.41
66582;SHT31;53438;48.898;2.308;2023-03-19T16:54:29;12.06;52.36
66582;SHT31;53438;48.898;2.308;2023-03-19T16:56:55;12.02;52.42
66582;SHT31;53438;48.898;2.308;2023-03-19T16:59:26;12.11;52.47
66582;SHT31;53438;48.898;2.308;2023-03-19T17:01:53;12.05;52.27
66582;SHT31;53438;48.898;2.308;2023-03-19T17:04:18;12.04;52.12
66582;SHT31;53438;48.898;2.308;2023-03-19T17:06:44;12.04;51.93
66582;SHT31;53438;48.898;2.308;2023-03-19T17:09:09;11.94;51.42
66582;SHT31;53438;48.898;2.308;2023-03-19T17:11:37;11.98;51.22
66582;SHT31;53438;48.898;2.308;2023-03-19T17:14:05;11.92;50.95
66582;SHT31;53438;48.898;2.308;2023-03-19T17:16:32;11.96;51.08
66582;SHT31;53438;48.898;2.308;2023-03-19T17:18:57;11.99;51.26
66582;SHT31;53438;48.898;2.308;2023-03-19T17:21:28;12.01;51.42
66582;SHT31;53438;48.898;2.308;2023-03-19T17:23:54;12.02;51.65
66582;SHT31;53438;48.898;2.308;2023-03-19T17:26:27;11.99;50.94
66582;SHT31;53438;48.898;2.308;2023-03-19T17:28:53;11.94;50.97
66582;SHT31;53438;48.898;2.308;2023-03-19T17:31:28;11.88;51.03
66582;SHT31;53438;48.898;2.308;2023-03-19T17:34:09;11.89;51.32
66582;SHT31;53438;48.898;2.308;2023-03-19T17:36:35;11.77;51.59
66582;SHT31;53438;48.898;2.308;2023-03-19T17:39:02;11.75;51.91
66582;SHT31;53438;48.898;2.308;2023-03-19T17:41:29;11.73;52.33
66582;SHT31;53438;48.898;2.308;2023-03-19T17:43:56;11.73;52.56
66582;SHT31;53438;48.898;2.308;2023-03-19T17:46:24;11.61;52.74
66582;SHT31;53438;48.898;2.308;2023-03-19T17:48:51;11.55;53.06
66582;SHT31;53438;48.898;2.308;2023-03-19T17:51:18;11.61;53.78
66582;SHT31;53438;48.898;2.308;2023-03-19T17:53:48;11.53;53.98
66582;SHT31;53438;48.898;2.308;2023-03-19T17:56:16;11.58;54.01
66582;SHT31;53438;48.898;2.308;2023-03-19T17:58:42;11.50;54.75
66582;SHT31;53438;48.898;2.308;2023-03-19T18:01:18;11.40;55.25
66582;SHT31;53438;48.898;2.308;2023-03-19T18:03:44;11.41;55.47
66582;SHT31;53438;48.898;2.308;2023-03-19T18:06:19;11.40;55.79
66582;SHT31;53438;48.898;2.308;2023-03-19T18:08:44;11.33;55.96
66582;SHT31;53438;48.898;2.308;2023-03-19T18:11:11;11.30;56.13
66582;SHT31;53438;48.898;2.308;2023-03-19T18:13:37;11.27;56.39
66582;SHT31;53438;48.898;2.308;2023-03-19T18:16:04;11.26;56.50
66582;SHT31;53438;48.898;2.308;2023-03-19T18:18:30;11.24;56.66
66582;SHT31;53438;48.898;2.308;2023-03-19T18:20:56;11.31;56.73
66582;SHT31;53438;48.898;2.308;2023-03-19T18:23:21;11.20;56.62
66582;SHT31;53438;48.898;2.308;2023-03-19T18:25:48;11.23;56.64
66582;SHT31;53438;48.898;2.308;2023-03-19T18:28:15;11.17;56.75
66582;SHT31;53438;48.898;2.308;2023-03-19T18:30:40;11.06;56.64
66582;SHT31;53438;48.898;2.308;2023-03-19T18:33:12;11.03;57.20
66582;SHT31;53438;48.898;2.308;2023-03-19T18:35:41;10.85;57.14
66582;SHT31;53438;48.898;2.308;2023-03-19T18:38:18;10.96;57.18
66582;SHT31;53438;48.898;2.308;2023-03-19T18:40:45;10.93;57.20
66582;SHT31;53438;48.898;2.308;2023-03-19T18:43:10;10.93;57.26
66582;SHT31;53438;48.898;2.308;2023-03-19T18:45:37;10.92;57.32
66582;SHT31;53438;48.898;2.308;2023-03-19T18:48:25;10.85;57.38
66582;SHT31;53438;48.898;2.308;2023-03-19T18:50:57;10.89;57.67
66582;SHT31;53438;48.898;2.308;2023-03-19T18:53:23;10.82;57.79
66582;SHT31;53438;48.898;2.308;2023-03-19T18:55:49;10.85;57.79
66582;SHT31;53438;48.898;2.308;2023-03-19T18:58:23;10.83;57.59
66582;SHT31;53438;48.898;2.308;2023-03-19T19:00:50;10.79;57.91
66582;SHT31;53438;48.898;2.308;2023-03-19T19:03:18;10.71;58.32
66582;SHT31;53438;48.898;2.308;2023-03-19T19:05:44;10.76;58.09
66582;SHT31;53438;48.898;2.308;2023-03-19T19:08:13;10.73;57.65
66582;SHT31;53438;48.898;2.308;2023-03-19T19:10:42;10.65;57.87
66582;SHT31;53438;48.898;2.308;2023-03-19T19:13:20;10.61;57.87
66582;SHT31;53438;48.898;2.308;2023-03-19T19:15:46;10.59;58.10
66582;SHT31;53438;48.898;2.308;2023-03-19T19:18:24;10.64;58.00
66582;SHT31;53438;48.898;2.308;2023-03-19T19:20:51;10.55;58.46
66582;SHT31;53438;48.898;2.308;2023-03-19T19:23:18;10.54;58.50
66582;SHT31;53438;48.898;2.308;2023-03-19T19:25:46;10.62;58.11
66582;SHT31;53438;48.898;2.308;2023-03-19T19:28:19;10.62;58.47
66582;SHT31;53438;48.898;2.308;2023-03-19T19:30:47;10.56;58.40
66582;SHT31;53438;48.898;2.308;2023-03-19T19:33:20;10.54;58.32
66582;SHT31;53438;48.898;2.308;2023-03-19T19:35:45;10.65;58.46
66582;SHT31;53438;48.898;2.308;2023-03-19T19:38:11;10.59;58.19
66582;SHT31;53438;48.898;2.308;2023-03-19T19:40:38;10.65;57.85
66582;SHT31;53438;48.898;2.308;2023-03-19T19:43:05;10.55;58.07
66582;SHT31;53438;48.898;2.308;2023-03-19T19:45:35;10.55;58.18
66582;SHT31;53438;48.898;2.308;2023-03-19T19:48:08;10.52;58.02
66582;SHT31;53438;48.898;2.308;2023-03-19T19:50:36;10.52;58.23
66582;SHT31;53438;48.898;2.308;2023-03-19T19:53:02;10.51;58.34
66582;SHT31;53438;48.898;2.308;2023-03-19T19:55:27;10.44;58.26
66582;SHT31;53438;48.898;2.308;2023-03-19T19:57:54;10.35;58.71
66582;SHT31;53438;48.898;2.308;2023-03-19T20:00:22;10.34;58.56
66582;SHT31;53438;48.898;2.308;2023-03-19T20:02:49;10.38;58.40
66582;SHT31;53438;48.898;2.308;2023-03-19T20:05:18;10.45;58.48
66582;SHT31;53438;48.898;2.308;2023-03-19T20:07:44;10.41;58.34
66582;SHT31;53438;48.898;2.308;2023-03-19T20:10:11;10.46;58.42
66582;SHT31;53438;48.898;2.308;2023-03-19T20:12:38;10.42;58.57
66582;SHT31;53438;48.898;2.308;2023-03-19T20:15:13;10.37;58.18
66582;SHT31;53438;48.898;2.308;2023-03-19T20:17:39;10.33;58.78
66582;SHT31;53438;48.898;2.308;2023-03-19T20:20:13;10.41;58.80
66582;SHT31;53438;48.898;2.308;2023-03-19T20:22:39;10.24;58.05
66582;SHT31;53438;48.898;2.308;2023-03-19T20:25:05;10.27;58.43
66582;SHT31;53438;48.898;2.308;2023-03-19T20:27:31;10.34;58.39
66582;SHT31;53438;48.898;2.308;2023-03-19T20:29:57;10.16;58.99
66582;SHT31;53438;48.898;2.308;2023-03-19T20:34:57;10.08;59.05
66582;SHT31;53438;48.898;2.308;2023-03-19T20:37:24;10.01;59.15
66582;SHT31;53438;48.898;2.308;2023-03-19T20:39:49;10.03;58.95
66582;SHT31;53438;48.898;2.308;2023-03-19T20:42:15;10.16;58.97
66582;SHT31;53438;48.898;2.308;2023-03-19T20:44:41;10.13;59.19
66582;SHT31;53438;48.898;2.308;2023-03-19T20:47:20;10.24;59.31
66582;SHT31;53438;48.898;2.308;2023-03-19T20:49:48;10.22;59.22
66582;SHT31;53438;48.898;2.308;2023-03-19T20:52:14;10.30;59.21
66582;SHT31;53438;48.898;2.308;2023-03-19T20:54:40;10.38;59.06